Time;durP1;ratioP1;P1;durP2;ratioP2;P2;SDS_P1;SDS_P2;PMS_P1;PMS_P2;Temp;Humidity;BMP_temperature;BMP_pressure;BME280_temperature;BME280_humidity;BME280_pressure;Samples;Min_cycle;Max_cycle;Signal;HPM_P1;HPM_P2
2023/07/11 00:00:44;;;;;;;6.78;2.08;;;17.80;99.90;;;;;;4988728;28;20113;-83
2023/07/11 00:03:10;;;;;;;7.60;2.10;;;17.70;99.90;;;;;;4985551;28;20080;-83
2023/07/11 00:05:36;;;;;;;7.38;2.30;;;17.80;99.90;;;;;;4994506;28;20050;-83
2023/07/11 00:08:02;;;;;;;9.20;2.20;;;17.70;99.90;;;;;;5003287;28;20049;-83
2023/07/11 00:10:28;;;;;;;7.13;2.05;;;17.80;99.90;;;;;;5003438;28;20034;-83
2023/07/11 00:12:54;;;;;;;7.32;2.00;;;17.80;99.90;;;;;;5003324;28;20061;-82
2023/07/11 00:15:20;;;;;;;9.75;2.33;;;17.70;99.90;;;;;;5010244;28;20076;-83
2023/07/11 00:17:47;;;;;;;8.63;2.38;;;17.70;99.90;;;;;;4987354;28;20037;-83
2023/07/11 00:20:16;;;;;;;10.80;2.60;;;17.70;99.90;;;;;;5002831;28;20786;-83
2023/07/11 00:22:44;;;;;;;8.98;2.50;;;17.70;99.90;;;;;;5003394;28;20029;-83
2023/07/11 00:25:11;;;;;;;9.02;2.78;;;17.70;99.90;;;;;;5010029;28;20116;-83
2023/07/11 00:27:37;;;;;;;8.48;2.80;;;17.70;99.90;;;;;;4988177;28;20448;-83
2023/07/11 00:30:04;;;;;;;9.23;2.30;;;17.70;99.90;;;;;;5002326;28;20053;-84
2023/07/11 00:32:29;;;;;;;9.32;2.83;;;17.70;99.90;;;;;;4979036;28;20055;-83
2023/07/11 00:34:55;;;;;;;7.43;2.38;;;17.70;99.90;;;;;;5009291;28;20037;-83
2023/07/11 00:37:21;;;;;;;8.00;2.50;;;17.60;99.90;;;;;;5005015;28;20502;-83
2023/07/11 00:39:47;;;;;;;8.40;2.58;;;17.60;99.90;;;;;;4990680;28;20029;-83
2023/07/11 00:42:12;;;;;;;8.48;2.40;;;17.60;99.90;;;;;;5007147;28;20452;-83
2023/07/11 00:45:03;;;;;;;10.70;2.63;;;17.60;99.90;;;;;;5005862;28;20045;-83
2023/07/11 00:47:30;;;;;;;10.57;2.67;;;17.60;99.90;;;;;;5056726;27;20509;-83
2023/07/11 00:50:06;;;;;;;8.65;2.83;;;17.60;99.90;;;;;;5022132;28;20049;-83
2023/07/11 00:52:37;;;;;;;8.88;2.42;;;17.60;99.90;;;;;;5016358;28;20066;-84
2023/07/11 00:55:08;;;;;;;9.18;2.63;;;17.60;99.90;;;;;;4992374;28;20123;-84
2023/07/11 00:57:37;;;;;;;9.98;2.50;;;17.60;99.90;;;;;;5027565;28;20029;-84
2023/07/11 01:00:04;;;;;;;10.23;2.72;;;17.60;99.90;;;;;;5028651;27;20041;-84
2023/07/11 01:02:31;;;;;;;9.32;2.70;;;17.60;99.90;;;;;;5010617;28;20084;-83
2023/07/11 01:04:59;;;;;;;10.07;2.55;;;17.60;99.90;;;;;;5025282;28;20407;-84
2023/07/11 01:07:34;;;;;;;10.93;3.10;;;17.60;99.90;;;;;;5008025;28;20041;-83
2023/07/11 01:09:59;;;;;;;10.40;3.20;;;17.60;99.90;;;;;;5028441;27;20037;-83
2023/07/11 01:12:26;;;;;;;9.52;3.20;;;17.60;99.90;;;;;;5010629;28;20443;-83
2023/07/11 01:14:52;;;;;;;8.85;2.60;;;17.50;99.90;;;;;;5007171;28;20554;-83
2023/07/11 01:17:25;;;;;;;8.15;2.65;;;17.60;99.90;;;;;;5008606;28;20033;-83
2023/07/11 01:19:52;;;;;;;9.05;2.80;;;17.60;99.90;;;;;;5009901;28;20064;-84
2023/07/11 01:22:18;;;;;;;14.35;3.50;;;17.50;99.90;;;;;;5010494;28;20513;-83
2023/07/11 01:24:43;;;;;;;10.38;3.13;;;17.50;99.90;;;;;;5006321;28;20041;-83
2023/07/11 01:27:09;;;;;;;9.07;3.00;;;17.50;99.90;;;;;;5060100;27;20052;-83
2023/07/11 01:29:35;;;;;;;9.05;3.00;;;17.40;99.90;;;;;;4992991;28;20041;-83
2023/07/11 01:32:01;;;;;;;8.18;2.90;;;17.40;99.90;;;;;;5007535;28;20054;-83
2023/07/11 01:34:27;;;;;;;8.43;2.83;;;17.40;99.90;;;;;;5022000;28;20114;-83
2023/07/11 01:36:52;;;;;;;8.40;2.88;;;17.40;99.90;;;;;;5021665;28;20093;-83
2023/07/11 01:39:18;;;;;;;9.52;2.92;;;17.40;99.90;;;;;;5025287;28;20069;-83
2023/07/11 01:41:44;;;;;;;8.27;2.65;;;17.40;99.90;;;;;;4993329;28;20474;-83
2023/07/11 01:44:13;;;;;;;8.27;2.42;;;17.40;99.90;;;;;;5006435;28;20148;-83
2023/07/11 01:46:39;;;;;;;8.65;2.67;;;17.50;99.90;;;;;;5007954;28;20040;-83
2023/07/11 01:49:04;;;;;;;8.98;2.65;;;17.40;99.90;;;;;;5008595;27;20417;-84
2023/07/11 01:51:31;;;;;;;9.93;2.72;;;17.40;99.90;;;;;;4982174;28;20103;-84
2023/07/11 01:53:57;;;;;;;8.90;2.88;;;17.50;99.90;;;;;;4994127;28;20033;-83
2023/07/11 01:56:23;;;;;;;8.45;2.70;;;17.50;99.90;;;;;;4990974;28;20558;-84
2023/07/11 01:58:48;;;;;;;7.95;2.72;;;17.50;99.90;;;;;;5025889;28;20417;-84
2023/07/11 02:01:14;;;;;;;8.20;2.88;;;17.50;99.90;;;;;;5022776;27;20041;-83
2023/07/11 02:03:40;;;;;;;10.52;2.92;;;17.50;99.90;;;;;;5007098;28;20041;-84
2023/07/11 02:06:06;;;;;;;10.25;3.08;;;17.50;99.90;;;;;;4999199;28;20041;-83
2023/07/11 02:08:31;;;;;;;10.05;2.95;;;17.50;99.90;;;;;;4995507;28;20806;-83
2023/07/11 02:10:57;;;;;;;9.95;2.80;;;17.50;99.90;;;;;;5012741;28;20037;-83
2023/07/11 02:13:23;;;;;;;7.90;2.47;;;17.40;99.90;;;;;;5026069;28;20047;-84
2023/07/11 02:15:49;;;;;;;7.13;2.35;;;17.40;99.90;;;;;;5010800;28;20052;-83
2023/07/11 02:18:15;;;;;;;8.18;2.70;;;17.40;99.90;;;;;;5023089;28;20294;-83
2023/07/11 02:20:43;;;;;;;8.10;2.70;;;17.40;99.90;;;;;;5026279;27;20045;-83
2023/07/11 02:23:10;;;;;;;9.55;2.83;;;17.40;99.90;;;;;;5021920;28;20490;-83
2023/07/11 02:25:37;;;;;;;7.75;2.63;;;17.40;99.90;;;;;;5025009;28;20140;-83
2023/07/11 02:28:03;;;;;;;10.00;2.42;;;17.30;99.90;;;;;;5026277;28;20054;-84
2023/07/11 02:30:29;;;;;;;10.13;2.80;;;17.30;99.90;;;;;;5007143;28;20037;-84
2023/07/11 02:32:54;;;;;;;9.05;2.40;;;17.30;99.90;;;;;;5005914;28;20041;-84
2023/07/11 02:35:20;;;;;;;7.85;2.58;;;17.30;99.90;;;;;;5021875;28;20416;-83
2023/07/11 02:37:46;;;;;;;8.20;2.38;;;17.30;99.90;;;;;;4991170;28;20055;-83
2023/07/11 02:40:12;;;;;;;9.43;2.55;;;17.20;99.90;;;;;;5001094;27;20066;-84
2023/07/11 02:42:37;;;;;;;9.68;2.40;;;17.20;99.90;;;;;;5012714;28;20041;-83
2023/07/11 02:45:03;;;;;;;9.93;2.60;;;17.20;99.90;;;;;;5027171;28;20747;-83
2023/07/11 02:47:29;;;;;;;7.75;2.53;;;17.10;99.90;;;;;;5009565;28;20185;-84
2023/07/11 02:49:55;;;;;;;8.98;2.50;;;17.10;99.90;;;;;;5024098;28;20049;-84
2023/07/11 02:52:21;;;;;;;10.50;2.78;;;17.10;99.90;;;;;;5090043;28;20112;-83
2023/07/11 02:54:46;;;;;;;9.07;2.50;;;17.10;99.90;;;;;;5024284;27;20394;-84
2023/07/11 02:57:12;;;;;;;8.63;2.50;;;17.10;99.90;;;;;;4991489;28;20083;-84
2023/07/11 02:59:38;;;;;;;8.60;2.67;;;17.10;99.90;;;;;;5012927;28;20044;-84
2023/07/11 03:02:04;;;;;;;8.50;2.60;;;17.10;99.90;;;;;;5006274;28;20053;-83
2023/07/11 03:04:31;;;;;;;8.25;2.33;;;17.10;99.90;;;;;;5035095;27;20238;-84
2023/07/11 03:06:57;;;;;;;8.10;2.70;;;17.10;99.90;;;;;;5022181;28;20243;-84
2023/07/11 03:09:24;;;;;;;12.02;2.90;;;17.10;99.90;;;;;;5009494;27;20033;-83
2023/07/11 03:11:51;;;;;;;7.43;2.40;;;17.10;99.90;;;;;;5008261;28;20037;-83
2023/07/11 03:14:18;;;;;;;10.10;2.78;;;17.10;99.90;;;;;;5020058;28;20218;-83
2023/07/11 03:16:44;;;;;;;9.70;2.75;;;17.10;99.90;;;;;;5026970;27;20500;-83
2023/07/11 03:19:09;;;;;;;9.32;2.85;;;17.10;99.90;;;;;;5009010;28;20275;-83
2023/07/11 03:21:35;;;;;;;9.52;2.75;;;17.10;99.90;;;;;;5025877;28;21202;-83
2023/07/11 03:24:01;;;;;;;11.13;2.65;;;17.10;99.90;;;;;;5026848;28;20063;-83
2023/07/11 03:26:27;;;;;;;9.95;2.67;;;17.10;99.90;;;;;;5024331;28;20474;-84
2023/07/11 03:28:52;;;;;;;8.73;2.35;;;17.20;99.90;;;;;;5023696;28;20358;-83
2023/07/11 03:31:18;;;;;;;7.47;2.25;;;17.10;99.90;;;;;;5021244;28;20048;-83
2023/07/11 03:33:47;;;;;;;8.85;2.38;;;17.10;99.90;;;;;;5010949;28;20287;-83
2023/07/11 03:36:13;;;;;;;9.15;2.85;;;17.20;99.90;;;;;;5024221;28;20076;-83
2023/07/11 03:38:39;;;;;;;9.20;2.42;;;17.10;99.90;;;;;;5019441;28;20078;-83
2023/07/11 03:41:05;;;;;;;7.82;2.17;;;17.10;99.90;;;;;;5023288;28;20030;-83
2023/07/11 03:43:31;;;;;;;12.55;2.67;;;17.20;99.90;;;;;;5000584;28;20044;-83
2023/07/11 03:45:57;;;;;;;10.02;2.97;;;17.10;99.90;;;;;;5009873;28;20790;-83
2023/07/11 03:48:22;;;;;;;12.32;2.72;;;17.20;99.90;;;;;;4992377;27;20198;-83
2023/07/11 03:50:48;;;;;;;10.80;2.88;;;17.20;99.90;;;;;;5025535;28;20144;-83
2023/07/11 03:53:14;;;;;;;8.48;2.67;;;17.20;99.90;;;;;;5007713;28;20041;-83
2023/07/11 03:55:43;;;;;;;12.30;3.03;;;17.20;99.90;;;;;;4985017;28;20463;-84
2023/07/11 03:58:09;;;;;;;9.10;2.65;;;17.20;99.90;;;;;;4996547;28;20060;-83
2023/07/11 04:00:35;;;;;;;10.57;3.00;;;17.20;99.90;;;;;;5008855;28;20045;-83
2023/07/11 04:03:01;;;;;;;10.02;2.72;;;17.30;99.90;;;;;;5006937;27;20070;-83
2023/07/11 04:05:27;;;;;;;11.00;3.20;;;17.30;99.90;;;;;;5008735;27;20037;-83
2023/07/11 04:07:52;;;;;;;11.90;3.40;;;17.30;99.90;;;;;;5012705;28;20041;-83
2023/07/11 04:10:18;;;;;;;9.43;2.95;;;17.30;99.90;;;;;;4997288;27;20045;-83
2023/07/11 04:12:44;;;;;;;9.90;3.15;;;17.40;99.90;;;;;;5006148;27;20033;-84
2023/07/11 04:15:10;;;;;;;11.13;3.15;;;17.40;99.90;;;;;;5010782;28;20114;-84
2023/07/11 04:17:36;;;;;;;11.57;3.15;;;17.40;99.90;;;;;;5011518;28;20450;-83
2023/07/11 04:20:02;;;;;;;11.57;3.38;;;17.50;99.90;;;;;;5013236;28;20040;-84
2023/07/11 04:22:28;;;;;;;10.82;3.58;;;17.50;99.90;;;;;;5016098;28;20128;-83
2023/07/11 04:24:54;;;;;;;10.73;3.20;;;17.50;99.90;;;;;;4996026;28;20041;-84
2023/07/11 04:27:20;;;;;;;9.15;3.13;;;17.50;99.90;;;;;;5002813;28;20086;-84
2023/07/11 04:29:46;;;;;;;11.40;3.38;;;17.60;99.90;;;;;;5005818;28;20040;-84
2023/07/11 04:32:11;;;;;;;11.65;3.45;;;17.50;99.90;;;;;;5007699;28;20043;-84
2023/07/11 04:34:37;;;;;;;11.65;3.10;;;17.60;99.90;;;;;;5019163;27;20042;-83
2023/07/11 04:37:03;;;;;;;11.82;3.05;;;17.60;99.90;;;;;;5002794;28;20511;-83
2023/07/11 04:39:28;;;;;;;10.32;3.20;;;17.60;99.90;;;;;;5027006;28;20037;-83
2023/07/11 04:41:54;;;;;;;12.68;3.30;;;17.60;99.90;;;;;;5017132;28;20099;-84
2023/07/11 04:44:20;;;;;;;8.35;3.00;;;17.70;99.90;;;;;;4993388;28;20044;-83
2023/07/11 04:46:45;;;;;;;8.48;3.22;;;17.70;99.90;;;;;;5006521;27;20029;-84
2023/07/11 04:49:11;;;;;;;9.20;3.00;;;17.70;99.90;;;;;;4982420;28;20038;-83
2023/07/11 04:51:37;;;;;;;10.60;3.70;;;17.70;99.90;;;;;;5005922;28;20127;-83
2023/07/11 04:54:03;;;;;;;8.57;3.03;;;17.70;99.90;;;;;;5009077;28;20070;-84
2023/07/11 04:56:28;;;;;;;10.38;3.35;;;17.70;99.90;;;;;;5023764;28;20136;-84
2023/07/11 04:58:54;;;;;;;10.02;3.38;;;17.70;99.90;;;;;;5008369;28;20033;-84
2023/07/11 05:01:20;;;;;;;10.57;3.22;;;17.70;99.90;;;;;;5002631;28;20671;-85
2023/07/11 05:03:48;;;;;;;8.60;3.13;;;17.70;99.90;;;;;;4976897;28;20045;-84
2023/07/11 05:06:14;;;;;;;10.00;3.20;;;17.70;99.90;;;;;;5012651;28;20165;-84
2023/07/11 05:08:40;;;;;;;9.52;3.05;;;17.70;99.90;;;;;;5027347;27;20177;-84
2023/07/11 05:11:14;;;;;;;8.95;3.13;;;17.80;99.90;;;;;;5024755;28;20033;-84
2023/07/11 05:13:41;;;;;;;11.02;3.33;;;17.90;99.90;;;;;;5033751;27;20033;-85
2023/07/11 05:16:10;;;;;;;9.82;3.15;;;17.90;99.90;;;;;;4999024;28;20435;-84
2023/07/11 05:18:40;;;;;;;11.10;3.10;;;16.90;99.90;;;;;;5030326;27;20049;-84
2023/07/11 05:21:07;;;;;;;8.95;3.38;;;18.10;99.90;;;;;;5031163;27;20116;-84
2023/07/11 05:23:33;;;;;;;11.07;3.53;;;18.20;99.90;;;;;;5022292;28;20175;-83
2023/07/11 05:25:59;;;;;;;11.77;3.63;;;18.30;99.90;;;;;;5039111;27;20082;-84
2023/07/11 05:28:25;;;;;;;12.80;3.50;;;18.40;99.90;;;;;;5089578;27;20048;-83
2023/07/11 05:30:52;;;;;;;12.52;3.80;;;18.50;99.90;;;;;;5002452;28;20049;-84
2023/07/11 05:33:18;;;;;;;10.57;3.70;;;18.60;99.90;;;;;;5032520;27;20033;-84
2023/07/11 05:35:57;;;;;;;9.98;3.80;;;18.70;99.90;;;;;;5008094;28;20045;-83
2023/07/11 05:38:24;;;;;;;10.32;3.60;;;18.90;99.90;;;;;;5015898;28;20043;-83
2023/07/11 05:40:49;;;;;;;11.60;3.38;;;19.00;99.90;;;;;;5002844;28;20037;-83
2023/07/11 05:43:15;;;;;;;10.10;3.72;;;19.10;99.90;;;;;;5022814;27;20052;-83
2023/07/11 05:45:44;;;;;;;13.07;3.58;;;19.20;99.90;;;;;;5024734;28;20048;-83
2023/07/11 05:48:10;;;;;;;10.05;3.72;;;19.20;99.90;;;;;;5017549;28;20041;-83
2023/07/11 05:50:36;;;;;;;11.63;3.72;;;19.20;99.90;;;;;;5045977;28;20539;-83
2023/07/11 05:53:01;;;;;;;10.40;4.03;;;19.20;99.90;;;;;;5006106;28;21125;-83
2023/07/11 05:55:27;;;;;;;11.30;3.75;;;19.20;99.90;;;;;;5011789;28;20098;-84
2023/07/11 05:57:53;;;;;;;10.75;3.47;;;19.20;99.90;;;;;;5012316;28;20109;-83
2023/07/11 06:00:19;;;;;;;22.95;4.07;;;19.20;99.90;;;;;;5010747;28;20492;-83
2023/07/11 06:02:45;;;;;;;11.10;3.83;;;19.20;99.90;;;;;;4994458;28;20041;-83
2023/07/11 06:05:11;;;;;;;10.88;3.42;;;19.30;99.90;;;;;;5019207;28;20478;-83
2023/07/11 06:07:38;;;;;;;9.07;3.60;;;19.40;99.90;;;;;;5007770;28;20101;-83
2023/07/11 06:10:04;;;;;;;12.55;3.92;;;19.40;99.90;;;;;;5025872;28;21698;-83
2023/07/11 06:12:30;;;;;;;12.05;3.80;;;19.40;99.90;;;;;;5005261;28;20533;-83
2023/07/11 06:14:55;;;;;;;12.43;3.60;;;19.50;99.90;;;;;;4979510;28;20037;-83
2023/07/11 06:17:21;;;;;;;10.25;3.63;;;19.50;99.90;;;;;;5044212;28;20160;-83
2023/07/11 06:19:47;;;;;;;10.43;3.60;;;19.60;99.90;;;;;;5019872;28;20124;-83
2023/07/11 06:22:12;;;;;;;11.20;3.67;;;19.60;99.90;;;;;;5019800;28;20128;-84
2023/07/11 06:24:39;;;;;;;9.27;3.50;;;19.70;99.90;;;;;;4993436;28;20045;-83
2023/07/11 06:27:04;;;;;;;10.13;3.42;;;19.70;99.90;;;;;;4995535;28;20532;-83
2023/07/11 06:29:31;;;;;;;9.07;3.63;;;19.90;99.90;;;;;;4976369;28;20042;-84
2023/07/11 06:31:57;;;;;;;10.73;3.88;;;20.00;99.90;;;;;;4989652;28;20054;-84
2023/07/11 06:34:23;;;;;;;12.38;3.85;;;20.20;99.90;;;;;;4988258;28;20105;-84
2023/07/11 06:36:49;;;;;;;10.55;3.55;;;20.40;99.90;;;;;;5041169;28;20535;-84
2023/07/11 06:39:14;;;;;;;10.85;3.65;;;20.50;99.90;;;;;;4999440;28;20220;-84
2023/07/11 06:41:40;;;;;;;9.32;3.45;;;20.60;99.90;;;;;;4995259;28;20336;-83
2023/07/11 06:44:08;;;;;;;11.10;3.60;;;20.80;99.90;;;;;;4992176;28;20038;-82
2023/07/11 06:46:37;;;;;;;9.82;3.40;;;20.90;99.90;;;;;;5020528;28;20041;-83
2023/07/11 06:49:03;;;;;;;9.00;3.50;;;20.90;99.90;;;;;;5056557;27;20055;-83
2023/07/11 06:51:29;;;;;;;9.93;3.38;;;21.00;99.90;;;;;;5089775;27;20399;-84
2023/07/11 06:53:55;;;;;;;9.00;3.50;;;21.10;99.90;;;;;;5089148;27;20084;-84
2023/07/11 06:56:22;;;;;;;9.73;3.20;;;21.20;99.90;;;;;;5104389;27;20505;-83
2023/07/11 06:58:49;;;;;;;10.13;3.17;;;21.30;99.90;;;;;;5084264;27;20039;-83
2023/07/11 07:01:17;;;;;;;12.20;3.35;;;21.60;99.90;;;;;;5087413;27;20042;-83
2023/07/11 07:03:43;;;;;;;11.18;3.70;;;21.50;99.90;;;;;;5089756;27;20461;-83
2023/07/11 07:06:11;;;;;;;9.85;3.42;;;21.70;99.90;;;;;;5105865;27;20488;-83
2023/07/11 07:08:37;;;;;;;9.07;3.08;;;21.70;99.90;;;;;;5088240;27;20045;-83
2023/07/11 07:11:03;;;;;;;10.60;3.42;;;21.80;99.90;;;;;;5069152;27;20043;-83
2023/07/11 07:13:29;;;;;;;11.07;3.40;;;21.80;99.90;;;;;;5073797;28;20038;-84
2023/07/11 07:15:57;;;;;;;10.52;3.55;;;21.80;99.90;;;;;;5087522;27;20503;-83
2023/07/11 07:18:25;;;;;;;9.60;3.15;;;21.90;99.90;;;;;;5086101;27;20114;-83
2023/07/11 07:20:52;;;;;;;10.25;3.20;;;22.10;99.90;;;;;;5071798;28;20110;-84
2023/07/11 07:23:19;;;;;;;9.00;2.92;;;22.20;99.90;;;;;;5087426;28;21547;-83
2023/07/11 07:25:59;;;;;;;11.65;3.63;;;22.30;99.90;;;;;;5104192;28;20576;-83
2023/07/11 07:28:27;;;;;;;11.52;3.00;;;22.40;99.90;;;;;;5070264;28;20086;-83
2023/07/11 07:30:55;;;;;;;10.73;3.38;;;22.50;99.90;;;;;;5102282;28;20031;-84
2023/07/11 07:33:26;;;;;;;10.60;3.10;;;22.60;99.90;;;;;;5086679;28;20042;-83
2023/07/11 07:35:57;;;;;;;9.80;3.10;;;23.10;99.90;;;;;;5083570;28;20043;-83
2023/07/11 07:38:23;;;;;;;8.48;2.80;;;22.60;99.90;;;;;;5078829;27;20059;-83
2023/07/11 07:40:52;;;;;;;10.13;3.42;;;22.70;99.90;;;;;;5103542;27;20069;-83
2023/07/11 07:43:18;;;;;;;8.75;3.08;;;22.80;99.90;;;;;;5087732;27;20161;-83
2023/07/11 07:45:48;;;;;;;10.25;3.38;;;22.80;99.90;;;;;;5077101;27;20147;-83
2023/07/11 07:48:14;;;;;;;10.45;3.10;;;22.80;99.90;;;;;;5061332;28;20062;-83
2023/07/11 07:50:39;;;;;;;10.95;3.10;;;23.00;99.90;;;;;;4976589;28;20190;-83
2023/07/11 07:53:05;;;;;;;9.25;2.92;;;23.00;99.90;;;;;;5001125;28;20033;-83
2023/07/11 07:55:34;;;;;;;9.32;2.70;;;23.10;99.90;;;;;;4995278;28;20045;-84
2023/07/11 07:58:00;;;;;;;9.18;3.17;;;23.10;99.90;;;;;;4976951;28;20044;-83
2023/07/11 08:00:26;;;;;;;9.68;2.72;;;23.20;99.90;;;;;;5008281;28;20037;-84
2023/07/11 08:02:51;;;;;;;8.52;2.70;;;23.20;99.90;;;;;;5058323;28;20102;-84
2023/07/11 08:05:18;;;;;;;9.40;3.08;;;23.20;99.90;;;;;;4985752;28;20076;-84
2023/07/11 08:07:44;;;;;;;9.57;2.80;;;23.20;99.90;;;;;;4991287;28;20042;-83
2023/07/11 08:10:10;;;;;;;8.73;2.90;;;23.30;99.90;;;;;;5009521;28;20541;-83
2023/07/11 08:12:36;;;;;;;9.55;2.90;;;23.40;99.90;;;;;;4975659;28;20121;-84
2023/07/11 08:15:05;;;;;;;9.55;2.85;;;23.60;99.90;;;;;;5041480;28;20042;-83
2023/07/11 08:17:31;;;;;;;8.50;2.70;;;23.80;99.90;;;;;;5015956;28;20049;-83
2023/07/11 08:19:57;;;;;;;8.95;2.90;;;23.80;99.90;;;;;;5009869;28;20402;-83
2023/07/11 08:22:22;;;;;;;9.65;2.83;;;23.90;99.90;;;;;;4995417;28;20034;-83
2023/07/11 08:24:48;;;;;;;9.50;3.00;;;24.10;99.90;;;;;;4998703;28;20129;-84
2023/07/11 08:27:14;;;;;;;8.15;2.70;;;24.10;99.90;;;;;;4994205;28;20041;-83
2023/07/11 08:29:44;;;;;;;10.73;3.05;;;24.10;99.90;;;;;;5012141;28;20053;-84
2023/07/11 08:32:14;;;;;;;9.43;3.15;;;24.00;99.90;;;;;;4995012;28;20079;-83
2023/07/11 08:34:41;;;;;;;9.23;2.70;;;24.00;99.90;;;;;;5007144;28;20394;-83
2023/07/11 08:37:07;;;;;;;8.38;2.78;;;23.90;99.90;;;;;;4997559;28;20115;-84
2023/07/11 08:39:33;;;;;;;10.45;2.85;;;23.90;99.90;;;;;;5009744;28;20057;-83
2023/07/11 08:42:05;;;;;;;8.93;2.80;;;23.90;99.90;;;;;;4994230;28;20033;-83
2023/07/11 08:44:31;;;;;;;8.48;2.85;;;24.00;99.90;;;;;;5026872;28;20037;-83
2023/07/11 08:47:23;;;;;;;8.68;2.72;;;24.00;99.90;;;;;;4989043;28;20049;-83
2023/07/11 08:50:01;;;;;;;8.35;2.63;;;23.90;99.90;;;;;;5008320;28;20061;-83
2023/07/11 08:52:28;;;;;;;7.32;2.33;;;23.90;99.90;;;;;;5003311;28;20049;-83
2023/07/11 08:55:19;;;;;;;8.10;2.75;;;24.00;99.90;;;;;;5078370;28;20380;-84
2023/07/11 08:57:51;;;;;;;8.60;2.60;;;24.10;99.90;;;;;;4979493;28;20133;-83
2023/07/11 09:00:18;;;;;;;11.25;3.10;;;24.30;99.90;;;;;;5018064;28;20041;-84
2023/07/11 09:02:59;;;;;;;10.32;3.10;;;24.40;99.90;;;;;;4997519;28;20110;-83
2023/07/11 09:05:57;;;;;;;9.27;2.72;;;24.60;99.90;;;;;;4994925;28;20045;-83
2023/07/11 09:08:23;;;;;;;9.32;2.97;;;24.70;99.90;;;;;;5010930;28;20034;-83
2023/07/11 09:11:09;;;;;;;12.02;3.08;;;24.80;99.90;;;;;;5021416;28;20045;-83
2023/07/11 09:13:38;;;;;;;9.75;3.15;;;25.10;99.90;;;;;;5000429;28;20029;-83
2023/07/11 09:16:30;;;;;;;11.55;2.95;;;25.10;99.90;;;;;;5016480;28;20048;-83
2023/07/11 09:19:16;;;;;;;8.70;2.90;;;25.00;99.90;;;;;;5004691;28;20382;-83
2023/07/11 09:21:51;;;;;;;12.32;2.85;;;25.10;99.90;;;;;;5010207;28;20057;-83
2023/07/11 09:24:31;;;;;;;8.63;2.65;;;25.10;99.90;;;;;;5031882;27;20060;-83
2023/07/11 09:27:04;;;;;;;9.88;3.10;;;25.30;99.90;;;;;;5004335;28;20041;-83
2023/07/11 09:29:31;;;;;;;9.63;3.25;;;25.50;99.90;;;;;;5014497;28;20125;-83
2023/07/11 09:31:59;;;;;;;8.80;2.75;;;25.60;99.90;;;;;;5019460;28;20068;-83
2023/07/11 09:34:38;;;;;;;9.15;3.28;;;25.30;99.90;;;;;;4998491;28;20043;-83
2023/07/11 09:37:30;;;;;;;9.18;2.50;;;25.60;99.90;;;;;;4991131;28;20094;-83
2023/07/11 09:40:11;;;;;;;8.15;2.50;;;25.50;99.90;;;;;;5020089;28;20106;-83
2023/07/11 09:43:02;;;;;;;7.65;2.50;;;25.40;99.90;;;;;;5009771;28;20154;-83
2023/07/11 09:45:34;;;;;;;8.27;2.40;;;25.40;99.90;;;;;;5015921;28;20040;-83
2023/07/11 09:48:12;;;;;;;;;;;25.40;99.90;;;;;;4999721;28;20045;-83
2023/07/11 09:50:41;;;;;;;9.30;2.40;;;25.70;99.90;;;;;;5018189;28;19973;-83
2023/07/11 09:53:14;;;;;;;7.78;2.30;;;25.70;99.90;;;;;;5039338;28;20052;-83
2023/07/11 09:55:41;;;;;;;7.60;2.30;;;25.90;99.90;;;;;;5031060;28;20110;-83
2023/07/11 09:58:14;;;;;;;9.32;2.53;;;26.10;99.90;;;;;;5001921;27;21567;-83
2023/07/11 10:00:47;;;;;;;9.55;2.20;;;26.20;99.90;;;;;;5024300;28;20069;-83
2023/07/11 10:03:21;;;;;;;12.40;2.30;;;26.30;99.90;;;;;;5019757;28;20355;-83
2023/07/11 10:05:50;;;;;;;9.20;2.30;;;26.20;99.90;;;;;;5019963;28;20052;-83
2023/07/11 10:08:21;;;;;;;9.95;2.28;;;26.30;99.90;;;;;;5022285;28;20458;-82
2023/07/11 10:10:53;;;;;;;8.77;2.30;;;26.30;99.90;;;;;;5021442;28;20052;-82
2023/07/11 10:13:20;;;;;;;8.73;2.20;;;26.30;99.90;;;;;;5008027;28;20045;-83
2023/07/11 10:15:52;;;;;;;8.75;2.20;;;26.30;99.90;;;;;;5010978;28;20163;-83
2023/07/11 10:18:20;;;;;;;7.35;2.22;;;26.30;99.90;;;;;;5020107;28;20470;-83
2023/07/11 10:20:59;;;;;;;9.52;2.60;;;26.20;99.90;;;;;;5014234;27;20127;-83
2023/07/11 10:23:26;;;;;;;10.52;2.33;;;26.70;99.90;;;;;;5008762;28;20048;-83
2023/07/11 10:26:13;;;;;;;9.30;2.55;;;26.40;99.90;;;;;;5011014;27;20069;-83
2023/07/11 10:28:44;;;;;;;8.13;2.30;;;26.40;99.90;;;;;;4996528;28;20136;-83
2023/07/11 10:31:23;;;;;;;9.68;2.10;;;26.40;99.90;;;;;;5020285;27;20048;-85
2023/07/11 10:34:04;;;;;;;8.60;2.15;;;26.40;99.90;;;;;;5022184;28;20474;-83
2023/07/11 10:37:02;;;;;;;9.75;2.63;;;26.40;99.90;;;;;;5004945;28;20040;-83
2023/07/11 10:39:47;;;;;;;9.07;2.72;;;26.50;99.90;;;;;;5018396;28;20076;-83
2023/07/11 10:42:28;;;;;;;8.48;2.33;;;26.70;99.90;;;;;;5017344;28;20043;-82
2023/07/11 10:45:17;;;;;;;11.13;2.40;;;26.80;99.90;;;;;;5026681;28;20245;-83
2023/07/11 10:47:56;;;;;;;9.32;2.22;;;26.90;99.90;;;;;;5003724;28;20557;-82
2023/07/11 10:50:46;;;;;;;9.25;2.40;;;26.90;99.90;;;;;;5022432;27;20076;-83
2023/07/11 10:53:47;;;;;;;9.55;2.50;;;27.20;99.90;;;;;;5026724;27;20048;-83
2023/07/11 10:56:27;;;;;;;8.88;2.40;;;27.20;99.90;;;;;;5017114;27;20045;-84
2023/07/11 10:58:56;;;;;;;11.93;2.72;;;27.20;99.90;;;;;;5021888;28;20040;-82
2023/07/11 11:01:54;;;;;;;8.38;2.58;;;27.20;99.90;;;;;;5028231;27;20184;-83
2023/07/11 11:04:45;;;;;;;12.45;2.60;;;27.20;99.90;;;;;;4988441;28;20052;-83
2023/07/11 11:07:39;;;;;;;7.70;2.28;;;27.30;99.90;;;;;;5000548;28;20496;-84
2023/07/11 11:10:16;;;;;;;7.80;2.50;;;27.40;99.90;;;;;;5017579;28;20169;-84
2023/07/11 11:12:51;;;;;;;9.10;2.47;;;27.50;99.90;;;;;;5029017;27;20413;-84
2023/07/11 11:15:26;;;;;;;7.90;2.15;;;27.60;99.90;;;;;;5005388;28;20071;-84
2023/07/11 11:18:20;;;;;;;9.38;2.42;;;27.80;99.90;;;;;;5013915;28;20948;-83
2023/07/11 11:20:55;;;;;;;9.25;2.42;;;27.50;99.90;;;;;;5004451;28;20506;-84
2023/07/11 11:23:30;;;;;;;11.18;2.40;;;27.60;99.90;;;;;;5016128;28;20644;-84
2023/07/11 11:26:10;;;;;;;7.75;2.28;;;27.50;99.90;;;;;;5027628;28;20044;-84
2023/07/11 11:28:57;;;;;;;9.02;2.38;;;27.60;99.90;;;;;;5022346;28;20117;-84
2023/07/11 11:31:29;;;;;;;9.43;2.83;;;27.60;99.90;;;;;;5005470;28;20509;-83
2023/07/11 11:34:31;;;;;;;7.80;2.22;;;27.80;99.90;;;;;;4990162;28;20041;-83
2023/07/11 11:37:15;;;;;;;9.32;2.30;;;27.80;99.90;;;;;;5018393;28;20589;-84
2023/07/11 11:40:00;;;;;;;8.57;2.20;;;27.90;99.90;;;;;;5003321;28;20036;-83
2023/07/11 11:42:30;;;;;;;6.72;2.10;;;28.00;99.90;;;;;;5008141;28;20037;-83
2023/07/11 11:45:06;;;;;;;7.40;2.00;;;28.00;99.90;;;;;;5014658;28;20041;-83
2023/07/11 11:47:34;;;;;;;7.72;2.17;;;28.10;99.90;;;;;;5006345;28;20049;-83
2023/07/11 11:50:02;;;;;;;8.25;2.10;;;28.20;99.90;;;;;;4971188;28;20045;-83
2023/07/11 11:52:34;;;;;;;6.93;2.10;;;28.10;99.90;;;;;;5001850;28;20144;-83
2023/07/11 11:55:00;;;;;;;6.38;2.10;;;28.10;99.90;;;;;;5026786;27;20116;-83
2023/07/11 11:57:33;;;;;;;8.07;2.38;;;28.10;99.90;;;;;;4977953;28;20064;-84
2023/07/11 12:00:00;;;;;;;6.53;2.20;;;28.10;99.90;;;;;;5006264;28;20064;-84
2023/07/11 12:02:53;;;;;;;6.63;2.33;;;28.20;99.90;;;;;;5008252;28;20037;-83
2023/07/11 12:05:20;;;;;;;7.18;2.22;;;28.40;99.90;;;;;;4999110;28;20103;-83
2023/07/11 12:08:21;;;;;;;5.93;2.00;;;28.40;99.90;;;;;;5002317;28;20048;-83
2023/07/11 12:11:08;;;;;;;6.63;2.10;;;28.70;99.90;;;;;;5010190;28;20116;-83
2023/07/11 12:13:44;;;;;;;7.97;2.20;;;28.70;99.90;;;;;;5020864;28;20410;-84
2023/07/11 12:16:22;;;;;;;7.38;2.30;;;28.70;99.90;;;;;;5017626;27;20040;-83
2023/07/11 12:19:31;;;;;;;6.53;2.05;;;29.70;99.90;;;;;;5020963;28;20051;-83
2023/07/11 12:22:04;;;;;;;7.13;2.00;;;28.90;99.90;;;;;;5004501;28;20053;-82
2023/07/11 12:24:34;;;;;;;7.18;2.17;;;29.00;99.90;;;;;;5006314;28;20062;-86
2023/07/11 12:27:09;;;;;;;7.10;2.40;;;29.00;99.90;;;;;;5024521;28;20073;-85
2023/07/11 12:29:36;;;;;;;9.40;2.25;;;29.00;99.90;;;;;;5009219;28;20079;-83
2023/07/11 12:32:48;;;;;;;7.32;2.20;;;29.10;99.90;;;;;;5025977;28;20077;-83
2023/07/11 12:35:32;;;;;;;8.70;2.23;;;29.00;99.90;;;;;;5020360;28;20092;-86
2023/07/11 12:38:01;;;;;;;9.65;2.10;;;28.90;99.90;;;;;;5021845;27;20072;-83
2023/07/11 12:40:53;;;;;;;6.32;2.03;;;28.80;99.90;;;;;;5016686;28;20029;-83
2023/07/11 12:43:22;;;;;;;8.05;2.10;;;28.80;99.90;;;;;;5025514;28;20071;-83
2023/07/11 12:45:52;;;;;;;5.32;1.80;;;28.80;99.90;;;;;;5025680;28;20073;-83
2023/07/11 12:48:21;;;;;;;7.38;2.03;;;29.80;99.90;;;;;;5028719;27;20490;-83
2023/07/11 12:50:50;;;;;;;7.28;2.30;;;28.70;99.90;;;;;;5025907;28;20050;-83
2023/07/11 12:53:16;;;;;;;6.22;2.15;;;28.80;99.90;;;;;;5022807;28;20034;-84
2023/07/11 12:55:47;;;;;;;7.93;2.10;;;28.60;99.90;;;;;;5012702;28;20039;-83
2023/07/11 12:58:19;;;;;;;7.18;2.20;;;28.50;99.90;;;;;;5024977;27;21782;-83